CFG35M LPPT-EDDF
Flight info
| Callsign | CFG35M |
|---|---|
| Flight time | 2h 27m |
| Altitude | 36000 |
| Route | IXIDA DCT TOSDI DCT ZMR DCT NUBLO DCT RONSI DCT DELOG DCT PEXOD DCT DIDIG DCT TIRAV DCT ERJAZ DCT PIWIZ DCT TSU UN858 OQQAL DCT RANUX DCT VALEK DCT LIPNI DCT LIMGO Z111 RAMOB IMCOM1D |
| Aircraft | A320/M-SDE3FGHIRWY/LB1 |
Departure
| Time | 2026-05-01 11:10 |
|---|---|
| Airport | Lisbon Humberto Delgado Airport (LPPT) |
Arrival
| Time | 2026-05-01 13:38 |
|---|---|
| Airport | Frankfurt Main Airport (EDDF) |
| Time | Latitude | Longitude | Altitude | Speed | Heading |
|---|---|---|---|---|---|
| 2026-05-01 11:05 | 38.77017 | -9.13267 | 338 ft | 11 kts | 264° |
| 2026-05-01 11:06 | 38.77092 | -9.13316 | 341 ft | 18 kts | 349° |
| 2026-05-01 11:06 | 38.77251 | -9.13356 | 344 ft | 28 kts | 346° |
| 2026-05-01 11:06 | 38.77443 | -9.13409 | 342 ft | 28 kts | 348° |
| 2026-05-01 11:07 | 38.77807 | -9.13507 | 357 ft | 19 kts | 348° |
| 2026-05-01 11:07 | 38.77943 | -9.13462 | 362 ft | 25 kts | 18° |
| 2026-05-01 11:07 | 38.78116 | -9.13371 | 362 ft | 27 kts | 23° |
| 2026-05-01 11:07 | 38.78295 | -9.13276 | 363 ft | 28 kts | 21° |
| 2026-05-01 11:08 | 38.78417 | -9.13218 | 360 ft | 15 kts | 7° |
| 2026-05-01 11:08 | 38.78497 | -9.13236 | 361 ft | 1 kts | 338° |
| 2026-05-01 11:08 | 38.78498 | -9.13236 | 361 ft | 0 kts | 338° |
| 2026-05-01 11:09 | 38.78504 | -9.13239 | 366 ft | 6 kts | 337° |
| 2026-05-01 11:09 | 38.78547 | -9.13326 | 366 ft | 13 kts | 276° |
| 2026-05-01 11:10 | 38.78371 | -9.13465 | 364 ft | 52 kts | 202° |
| 2026-05-01 11:10 | 38.77807 | -9.13766 | 369 ft | 121 kts | 202° |
| 2026-05-01 11:10 | 38.76852 | -9.14248 | 451 ft | 163 kts | 200° |
| 2026-05-01 11:10 | 38.75804 | -9.14776 | 1124 ft | 163 kts | 202° |
| 2026-05-01 11:11 | 38.74741 | -9.15340 | 1820 ft | 167 kts | 204° |
| 2026-05-01 11:11 | 38.73639 | -9.15953 | 2289 ft | 182 kts | 205° |
| 2026-05-01 11:11 | 38.72417 | -9.16656 | 2564 ft | 203 kts | 205° |
| 2026-05-01 11:11 | 38.71045 | -9.17456 | 2795 ft | 230 kts | 209° |
| 2026-05-01 11:12 | 38.69799 | -9.18857 | 3142 ft | 252 kts | 238° |
| 2026-05-01 11:12 | 38.69243 | -9.20986 | 3827 ft | 260 kts | 266° |
| 2026-05-01 11:12 | 38.69562 | -9.23282 | 4520 ft | 269 kts | 295° |
| 2026-05-01 11:12 | 38.70722 | -9.25136 | 5432 ft | 271 kts | 321° |
| 2026-05-01 11:13 | 38.72455 | -9.26156 | 6141 ft | 281 kts | 348° |
| 2026-05-01 11:13 | 38.74432 | -9.26114 | 6797 ft | 291 kts | 12° |
| 2026-05-01 11:13 | 38.76340 | -9.25198 | 7504 ft | 296 kts | 27° |
| 2026-05-01 11:13 | 38.78201 | -9.24010 | 8228 ft | 301 kts | 25° |
| 2026-05-01 11:14 | 38.80121 | -9.22916 | 9002 ft | 304 kts | 22° |
| 2026-05-01 11:14 | 38.82095 | -9.21918 | 9809 ft | 306 kts | 20° |
| 2026-05-01 11:14 | 38.84110 | -9.21024 | 10565 ft | 307 kts | 18° |
| 2026-05-01 11:14 | 38.86132 | -9.19908 | 10828 ft | 328 kts | 37° |
| 2026-05-01 11:15 | 38.87797 | -9.17796 | 11009 ft | 348 kts | 51° |
| 2026-05-01 11:15 | 38.89389 | -9.15336 | 11222 ft | 367 kts | 53° |
| 2026-05-01 11:15 | 38.91003 | -9.12736 | 11719 ft | 376 kts | 53° |
| 2026-05-01 11:15 | 38.92647 | -9.10098 | 12337 ft | 381 kts | 53° |
| 2026-05-01 11:16 | 38.94340 | -9.07447 | 12972 ft | 385 kts | 52° |
| 2026-05-01 11:16 | 38.96073 | -9.04800 | 13595 ft | 390 kts | 52° |
| 2026-05-01 11:16 | 38.97570 | -9.01956 | 14154 ft | 390 kts | 66° |
| 2026-05-01 11:16 | 38.98823 | -8.98845 | 14681 ft | 396 kts | 58° |
| 2026-05-01 11:17 | 39.00569 | -8.96068 | 15211 ft | 402 kts | 50° |
| 2026-05-01 11:17 | 39.02432 | -8.93362 | 15766 ft | 406 kts | 50° |
| 2026-05-01 11:17 | 39.04320 | -8.90639 | 16306 ft | 410 kts | 49° |
| 2026-05-01 11:17 | 39.06230 | -8.87893 | 16843 ft | 413 kts | 49° |
| 2026-05-01 11:18 | 39.08157 | -8.85128 | 17381 ft | 417 kts | 49° |
| 2026-05-01 11:18 | 39.10104 | -8.82337 | 17911 ft | 421 kts | 49° |
| 2026-05-01 11:18 | 39.12068 | -8.79518 | 18441 ft | 425 kts | 49° |
| 2026-05-01 11:18 | 39.14044 | -8.76674 | 18902 ft | 428 kts | 49° |
| 2026-05-01 11:19 | 39.16041 | -8.73798 | 19365 ft | 432 kts | 48° |
| 2026-05-01 11:19 | 39.18050 | -8.70901 | 19820 ft | 435 kts | 48° |
| 2026-05-01 11:19 | 39.20067 | -8.67991 | 20305 ft | 438 kts | 48° |
| 2026-05-01 11:19 | 39.22103 | -8.65050 | 20766 ft | 441 kts | 47° |
| 2026-05-01 11:20 | 39.24150 | -8.62087 | 21209 ft | 444 kts | 47° |
| 2026-05-01 11:20 | 39.26208 | -8.59101 | 21641 ft | 447 kts | 47° |
| 2026-05-01 11:20 | 39.28282 | -8.56090 | 22075 ft | 450 kts | 47° |
| 2026-05-01 11:20 | 39.30368 | -8.53066 | 22491 ft | 453 kts | 47° |
| 2026-05-01 11:21 | 39.32476 | -8.50017 | 22896 ft | 456 kts | 47° |
| 2026-05-01 11:21 | 39.34596 | -8.46951 | 23291 ft | 459 kts | 47° |
| 2026-05-01 11:21 | 39.36723 | -8.43866 | 23696 ft | 462 kts | 47° |
| 2026-05-01 11:21 | 39.38864 | -8.40750 | 24019 ft | 464 kts | 47° |
| 2026-05-01 11:22 | 39.41011 | -8.37617 | 24328 ft | 467 kts | 47° |
| 2026-05-01 11:22 | 39.43172 | -8.34459 | 24624 ft | 470 kts | 47° |
| 2026-05-01 11:22 | 39.45337 | -8.31298 | 24948 ft | 471 kts | 47° |
| 2026-05-01 11:22 | 39.47512 | -8.28117 | 25263 ft | 473 kts | 46° |
| 2026-05-01 11:23 | 39.49700 | -8.24919 | 25559 ft | 475 kts | 46° |
| 2026-05-01 11:23 | 39.51897 | -8.21707 | 25864 ft | 477 kts | 46° |
| 2026-05-01 11:23 | 39.54100 | -8.18480 | 26182 ft | 479 kts | 46° |
| 2026-05-01 11:23 | 39.56311 | -8.15234 | 26483 ft | 481 kts | 46° |
| 2026-05-01 11:24 | 39.58524 | -8.11982 | 26767 ft | 483 kts | 46° |
| 2026-05-01 11:24 | 39.60746 | -8.08710 | 27047 ft | 485 kts | 46° |
| 2026-05-01 11:24 | 39.65215 | -8.02111 | 27590 ft | 489 kts | 46° |
| 2026-05-01 11:25 | 39.67519 | -7.98864 | 27823 ft | 490 kts | 43° |
| 2026-05-01 11:25 | 39.72406 | -7.92672 | 28313 ft | 492 kts | 40° |
| 2026-05-01 11:25 | 39.74920 | -7.89647 | 28548 ft | 494 kts | 39° |
| 2026-05-01 11:26 | 39.77444 | -7.86605 | 28784 ft | 495 kts | 40° |
| 2026-05-01 11:26 | 39.82462 | -7.80414 | 29226 ft | 498 kts | 41° |
| 2026-05-01 11:26 | 39.84944 | -7.77260 | 29406 ft | 500 kts | 41° |
| 2026-05-01 11:27 | 39.87416 | -7.74084 | 29678 ft | 499 kts | 41° |
| 2026-05-01 11:27 | 39.89885 | -7.70903 | 29962 ft | 499 kts | 41° |
| 2026-05-01 11:27 | 39.92356 | -7.67728 | 30249 ft | 499 kts | 41° |
| 2026-05-01 11:27 | 39.94830 | -7.64566 | 30484 ft | 498 kts | 41° |
| 2026-05-01 11:28 | 39.97311 | -7.61414 | 30721 ft | 498 kts | 40° |
| 2026-05-01 11:28 | 39.99793 | -7.58268 | 30986 ft | 497 kts | 41° |
| 2026-05-01 11:28 | 40.02262 | -7.55131 | 31300 ft | 495 kts | 41° |
| 2026-05-01 11:29 | 40.07138 | -7.48911 | 31798 ft | 493 kts | 41° |
| 2026-05-01 11:29 | 40.09588 | -7.45777 | 32043 ft | 493 kts | 41° |
| 2026-05-01 11:29 | 40.14475 | -7.39514 | 32499 ft | 493 kts | 41° |
| 2026-05-01 11:30 | 40.16924 | -7.36368 | 32725 ft | 493 kts | 41° |
| 2026-05-01 11:30 | 40.19365 | -7.33229 | 32962 ft | 492 kts | 41° |
| 2026-05-01 11:30 | 40.21807 | -7.30086 | 33194 ft | 492 kts | 41° |
| 2026-05-01 11:30 | 40.24244 | -7.26945 | 33425 ft | 492 kts | 41° |
| 2026-05-01 11:31 | 40.26682 | -7.23797 | 33682 ft | 492 kts | 42° |
| 2026-05-01 11:31 | 40.29110 | -7.20655 | 33934 ft | 491 kts | 42° |
| 2026-05-01 11:31 | 40.31566 | -7.17472 | 34133 ft | 490 kts | 42° |
| 2026-05-01 11:32 | 40.36406 | -7.11205 | 34167 ft | 489 kts | 42° |
| 2026-05-01 11:32 | 40.41210 | -7.04981 | 34166 ft | 488 kts | 42° |
| 2026-05-01 11:33 | 40.46041 | -6.98715 | 34163 ft | 488 kts | 42° |
| 2026-05-01 11:33 | 40.50863 | -6.92442 | 34155 ft | 488 kts | 42° |
| 2026-05-01 11:34 | 40.55687 | -6.86145 | 34155 ft | 488 kts | 42° |
| 2026-05-01 11:34 | 40.60490 | -6.79862 | 34168 ft | 487 kts | 43° |
| 2026-05-01 11:35 | 40.65285 | -6.73578 | 34168 ft | 486 kts | 43° |
| 2026-05-01 11:35 | 40.70073 | -6.67289 | 34157 ft | 486 kts | 43° |
| 2026-05-01 11:36 | 40.74051 | -6.62049 | 34155 ft | 486 kts | 43° |
| 2026-05-01 11:36 | 40.78830 | -6.55746 | 34158 ft | 485 kts | 43° |
| 2026-05-01 11:37 | 40.83596 | -6.49438 | 34162 ft | 485 kts | 43° |
| 2026-05-01 11:37 | 40.88358 | -6.43130 | 34165 ft | 484 kts | 44° |
| 2026-05-01 11:38 | 40.93129 | -6.36801 | 34162 ft | 482 kts | 44° |
| 2026-05-01 11:38 | 40.97828 | -6.30549 | 34151 ft | 482 kts | 44° |
| 2026-05-01 11:39 | 41.02647 | -6.24373 | 34164 ft | 482 kts | 41° |
| 2026-05-01 11:39 | 41.07660 | -6.18485 | 34165 ft | 482 kts | 40° |
| 2026-05-01 11:40 | 41.12706 | -6.12623 | 34157 ft | 482 kts | 40° |
| 2026-05-01 11:40 | 41.17691 | -6.06697 | 34161 ft | 481 kts | 41° |
| 2026-05-01 11:41 | 41.22631 | -6.00726 | 34160 ft | 479 kts | 42° |
| 2026-05-01 11:41 | 41.27560 | -5.94776 | 34166 ft | 479 kts | 41° |
| 2026-05-01 11:42 | 41.32505 | -5.88831 | 34174 ft | 479 kts | 41° |
| 2026-05-01 11:42 | 41.37440 | -5.82882 | 34160 ft | 479 kts | 41° |
| 2026-05-01 11:43 | 41.42379 | -5.76918 | 34170 ft | 479 kts | 42° |
| 2026-05-01 11:43 | 41.47303 | -5.70942 | 34157 ft | 479 kts | 42° |
| 2026-05-01 11:44 | 41.55143 | -5.62856 | 34161 ft | 475 kts | 25° |
| 2026-05-01 11:44 | 41.61200 | -5.59366 | 34175 ft | 474 kts | 21° |
| 2026-05-01 11:45 | 41.67285 | -5.55946 | 34161 ft | 475 kts | 21° |
| 2026-05-01 11:45 | 41.73369 | -5.52509 | 34163 ft | 475 kts | 21° |
| 2026-05-01 11:46 | 41.79454 | -5.49057 | 34163 ft | 475 kts | 21° |
| 2026-05-01 11:46 | 41.85544 | -5.45595 | 34166 ft | 475 kts | 21° |
| 2026-05-01 11:47 | 41.91623 | -5.42129 | 34166 ft | 475 kts | 22° |
| 2026-05-01 11:47 | 41.97710 | -5.38662 | 34166 ft | 475 kts | 22° |
| 2026-05-01 11:48 | 42.03784 | -5.35194 | 34285 ft | 474 kts | 22° |
| 2026-05-01 11:48 | 42.06816 | -5.33460 | 34500 ft | 474 kts | 21° |
| 2026-05-01 11:48 | 42.09844 | -5.31731 | 34713 ft | 473 kts | 22° |
| 2026-05-01 11:49 | 42.12834 | -5.30020 | 34919 ft | 472 kts | 22° |
| 2026-05-01 11:49 | 42.15852 | -5.28291 | 35143 ft | 471 kts | 22° |
| 2026-05-01 11:49 | 42.18861 | -5.26565 | 35362 ft | 470 kts | 21° |
| 2026-05-01 11:49 | 42.21870 | -5.24836 | 35584 ft | 469 kts | 21° |
| 2026-05-01 11:50 | 42.24863 | -5.23112 | 35806 ft | 468 kts | 21° |
| 2026-05-01 11:50 | 42.27852 | -5.21391 | 36032 ft | 466 kts | 21° |
| 2026-05-01 11:50 | 42.30833 | -5.19672 | 36151 ft | 468 kts | 22° |
| 2026-05-01 11:50 | 42.33840 | -5.17933 | 36167 ft | 470 kts | 22° |
| 2026-05-01 11:51 | 42.39852 | -5.14457 | 36166 ft | 471 kts | 22° |
| 2026-05-01 11:51 | 42.45879 | -5.10970 | 36166 ft | 471 kts | 22° |
| 2026-05-01 11:52 | 42.51909 | -5.07462 | 36169 ft | 472 kts | 22° |
| 2026-05-01 11:52 | 42.57936 | -5.03950 | 36165 ft | 472 kts | 22° |
| 2026-05-01 11:53 | 42.63983 | -5.00427 | 36168 ft | 472 kts | 22° |
| 2026-05-01 11:53 | 42.70020 | -4.96903 | 36167 ft | 472 kts | 22° |
| 2026-05-01 11:54 | 42.76063 | -4.93364 | 36162 ft | 472 kts | 22° |
| 2026-05-01 11:54 | 42.82089 | -4.89828 | 36170 ft | 471 kts | 22° |
| 2026-05-01 11:55 | 42.88109 | -4.86286 | 36171 ft | 471 kts | 22° |
| 2026-05-01 11:55 | 42.94129 | -4.82739 | 36173 ft | 471 kts | 22° |
| 2026-05-01 11:56 | 43.00145 | -4.79183 | 36170 ft | 471 kts | 22° |
| 2026-05-01 11:56 | 43.06155 | -4.75624 | 36166 ft | 471 kts | 22° |
| 2026-05-01 11:57 | 43.12170 | -4.72057 | 36163 ft | 471 kts | 22° |
| 2026-05-01 11:57 | 43.18183 | -4.68481 | 36168 ft | 471 kts | 22° |
| 2026-05-01 11:58 | 43.24188 | -4.64892 | 36162 ft | 471 kts | 22° |
| 2026-05-01 11:59 | 43.33206 | -4.59505 | 36163 ft | 471 kts | 22° |
| 2026-05-01 11:59 | 43.39211 | -4.55909 | 36161 ft | 471 kts | 22° |
| 2026-05-01 12:00 | 43.48203 | -4.50517 | 36175 ft | 469 kts | 22° |
| 2026-05-01 12:01 | 43.57172 | -4.45106 | 36190 ft | 469 kts | 22° |
| 2026-05-01 12:01 | 43.63109 | -4.41516 | 36179 ft | 469 kts | 22° |
| 2026-05-01 12:02 | 43.69081 | -4.37895 | 36175 ft | 469 kts | 22° |
| 2026-05-01 12:02 | 43.75049 | -4.34265 | 36186 ft | 469 kts | 22° |
| 2026-05-01 12:03 | 43.81024 | -4.30639 | 36179 ft | 469 kts | 22° |
| 2026-05-01 12:03 | 43.87007 | -4.27001 | 36172 ft | 470 kts | 22° |
| 2026-05-01 12:04 | 43.92986 | -4.23350 | 36176 ft | 470 kts | 22° |
| 2026-05-01 12:04 | 43.98967 | -4.19684 | 36184 ft | 470 kts | 22° |
| 2026-05-01 12:05 | 44.04945 | -4.16016 | 36186 ft | 470 kts | 22° |
| 2026-05-01 12:05 | 44.13903 | -4.10497 | 36187 ft | 470 kts | 22° |
| 2026-05-01 12:06 | 44.19878 | -4.06804 | 36200 ft | 470 kts | 22° |
| 2026-05-01 12:06 | 44.25857 | -4.03112 | 36194 ft | 470 kts | 22° |
| 2026-05-01 12:07 | 44.31825 | -3.99382 | 36195 ft | 470 kts | 25° |
| 2026-05-01 12:07 | 44.37353 | -3.94455 | 36194 ft | 472 kts | 33° |
| 2026-05-01 12:08 | 44.42756 | -3.89247 | 36193 ft | 472 kts | 33° |
| 2026-05-01 12:08 | 44.48163 | -3.84033 | 36190 ft | 472 kts | 33° |
| 2026-05-01 12:09 | 44.53558 | -3.78813 | 36197 ft | 471 kts | 33° |
| 2026-05-01 12:09 | 44.58946 | -3.73593 | 36218 ft | 470 kts | 33° |
| 2026-05-01 12:10 | 44.66968 | -3.65792 | 36216 ft | 469 kts | 33° |
| 2026-05-01 12:11 | 44.75011 | -3.57947 | 36217 ft | 469 kts | 33° |
| 2026-05-01 12:11 | 44.80360 | -3.52700 | 36214 ft | 469 kts | 33° |
| 2026-05-01 12:12 | 44.85714 | -3.47451 | 36209 ft | 469 kts | 33° |
| 2026-05-01 12:12 | 44.91064 | -3.42186 | 36202 ft | 468 kts | 33° |
| 2026-05-01 12:13 | 44.96391 | -3.36926 | 36232 ft | 467 kts | 33° |
| 2026-05-01 12:13 | 45.01704 | -3.31680 | 36230 ft | 466 kts | 33° |
| 2026-05-01 12:14 | 45.07007 | -3.26429 | 36226 ft | 465 kts | 33° |
| 2026-05-01 12:14 | 45.12299 | -3.21180 | 36222 ft | 464 kts | 33° |
| 2026-05-01 12:15 | 45.17590 | -3.15920 | 36222 ft | 465 kts | 33° |
| 2026-05-01 12:15 | 45.22881 | -3.10656 | 36214 ft | 465 kts | 33° |
| 2026-05-01 12:16 | 45.28167 | -3.05368 | 36220 ft | 464 kts | 33° |
| 2026-05-01 12:16 | 45.33427 | -3.00073 | 36230 ft | 463 kts | 34° |
| 2026-05-01 12:17 | 45.38649 | -2.94713 | 36235 ft | 463 kts | 34° |
| 2026-05-01 12:17 | 45.43852 | -2.89324 | 36238 ft | 463 kts | 34° |
| 2026-05-01 12:18 | 45.49052 | -2.83923 | 36231 ft | 462 kts | 34° |
| 2026-05-01 12:18 | 45.54251 | -2.78518 | 36234 ft | 462 kts | 34° |
| 2026-05-01 12:19 | 45.59454 | -2.73109 | 36228 ft | 463 kts | 34° |
| 2026-05-01 12:19 | 45.64660 | -2.67690 | 36226 ft | 463 kts | 34° |
| 2026-05-01 12:20 | 45.69862 | -2.62257 | 36231 ft | 463 kts | 34° |
| 2026-05-01 12:20 | 45.75061 | -2.56825 | 36242 ft | 463 kts | 35° |
| 2026-05-01 12:21 | 45.80259 | -2.51371 | 36231 ft | 464 kts | 35° |
| 2026-05-01 12:21 | 45.85463 | -2.45889 | 36235 ft | 464 kts | 35° |
| 2026-05-01 12:22 | 45.89786 | -2.41330 | 36237 ft | 464 kts | 35° |
| 2026-05-01 12:22 | 45.94990 | -2.35825 | 36242 ft | 465 kts | 35° |
| 2026-05-01 12:23 | 46.00202 | -2.30308 | 36235 ft | 466 kts | 35° |
| 2026-05-01 12:23 | 46.05346 | -2.24629 | 36226 ft | 466 kts | 43° |
| 2026-05-01 12:24 | 46.09810 | -2.17843 | 36237 ft | 467 kts | 46° |
| 2026-05-01 12:24 | 46.14232 | -2.10985 | 36237 ft | 467 kts | 46° |
| 2026-05-01 12:25 | 46.20873 | -2.00663 | 36223 ft | 468 kts | 47° |
| 2026-05-01 12:26 | 46.25297 | -1.93760 | 36213 ft | 468 kts | 47° |
| 2026-05-01 12:26 | 46.31930 | -1.83371 | 36229 ft | 469 kts | 47° |
| 2026-05-01 12:27 | 46.38549 | -1.72938 | 36224 ft | 469 kts | 47° |
| 2026-05-01 12:28 | 46.45172 | -1.62476 | 36224 ft | 469 kts | 47° |
| 2026-05-01 12:29 | 46.51787 | -1.52008 | 36218 ft | 469 kts | 47° |
| 2026-05-01 12:29 | 46.58380 | -1.41504 | 36231 ft | 469 kts | 47° |
| 2026-05-01 12:30 | 46.64951 | -1.30962 | 36229 ft | 469 kts | 47° |
| 2026-05-01 12:31 | 46.69319 | -1.23899 | 36229 ft | 469 kts | 47° |
| 2026-05-01 12:31 | 46.73677 | -1.16839 | 36224 ft | 468 kts | 47° |
| 2026-05-01 12:32 | 46.78035 | -1.09786 | 36222 ft | 468 kts | 47° |
| 2026-05-01 12:32 | 46.84534 | -0.99223 | 36215 ft | 468 kts | 47° |
| 2026-05-01 12:33 | 46.88900 | -0.92094 | 36208 ft | 468 kts | 47° |
| 2026-05-01 12:33 | 46.93205 | -0.85044 | 36207 ft | 468 kts | 48° |
| 2026-05-01 12:34 | 46.97533 | -0.77941 | 36214 ft | 467 kts | 47° |
| 2026-05-01 12:34 | 47.01864 | -0.70833 | 36214 ft | 467 kts | 47° |
| 2026-05-01 12:35 | 47.06176 | -0.63724 | 36212 ft | 467 kts | 47° |
| 2026-05-01 12:35 | 47.10484 | -0.56595 | 36211 ft | 466 kts | 47° |
| 2026-05-01 12:36 | 47.14782 | -0.49453 | 36209 ft | 466 kts | 47° |
| 2026-05-01 12:36 | 47.19070 | -0.42307 | 36221 ft | 466 kts | 47° |
| 2026-05-01 12:37 | 47.23362 | -0.35156 | 36220 ft | 466 kts | 47° |
| 2026-05-01 12:37 | 47.27806 | -0.28245 | 36226 ft | 465 kts | 43° |
| 2026-05-01 12:38 | 47.32489 | -0.21692 | 36226 ft | 464 kts | 42° |
| 2026-05-01 12:38 | 47.37190 | -0.15142 | 36225 ft | 464 kts | 43° |
| 2026-05-01 12:39 | 47.41813 | -0.08486 | 36226 ft | 464 kts | 43° |
| 2026-05-01 12:39 | 47.46393 | -0.01767 | 36223 ft | 464 kts | 44° |
| 2026-05-01 12:40 | 47.50977 | 0.04951 | 36226 ft | 464 kts | 43° |
| 2026-05-01 12:40 | 47.55571 | 0.11651 | 36225 ft | 464 kts | 43° |
| 2026-05-01 12:41 | 47.60157 | 0.18353 | 36226 ft | 463 kts | 43° |
| 2026-05-01 12:41 | 47.64737 | 0.25060 | 36226 ft | 463 kts | 43° |
| 2026-05-01 12:42 | 47.69301 | 0.31793 | 36229 ft | 462 kts | 43° |
| 2026-05-01 12:42 | 47.73861 | 0.38531 | 36232 ft | 462 kts | 43° |
| 2026-05-01 12:43 | 47.78382 | 0.45222 | 36235 ft | 462 kts | 44° |
| 2026-05-01 12:43 | 47.82942 | 0.51977 | 36234 ft | 463 kts | 44° |
| 2026-05-01 12:44 | 47.87491 | 0.58744 | 36226 ft | 463 kts | 45° |
| 2026-05-01 12:45 | 47.96591 | 0.72324 | 36219 ft | 463 kts | 45° |
| 2026-05-01 12:45 | 48.01133 | 0.79142 | 36220 ft | 463 kts | 45° |
| 2026-05-01 12:46 | 48.05671 | 0.85972 | 36227 ft | 463 kts | 46° |
| 2026-05-01 12:46 | 48.10204 | 0.92784 | 36229 ft | 462 kts | 46° |
| 2026-05-01 12:47 | 48.14733 | 0.99629 | 36225 ft | 462 kts | 46° |
| 2026-05-01 12:47 | 48.19243 | 1.06480 | 36226 ft | 462 kts | 46° |
| 2026-05-01 12:48 | 48.23538 | 1.13622 | 36225 ft | 460 kts | 52° |
| 2026-05-01 12:48 | 48.27592 | 1.21047 | 36231 ft | 459 kts | 52° |
| 2026-05-01 12:49 | 48.31628 | 1.28470 | 36232 ft | 459 kts | 52° |
| 2026-05-01 12:49 | 48.35655 | 1.35897 | 36222 ft | 458 kts | 53° |
| 2026-05-01 12:50 | 48.39674 | 1.43330 | 36235 ft | 457 kts | 53° |
| 2026-05-01 12:50 | 48.43681 | 1.50759 | 36227 ft | 457 kts | 53° |
| 2026-05-01 12:51 | 48.47650 | 1.58137 | 36232 ft | 456 kts | 54° |
| 2026-05-01 12:52 | 48.53633 | 1.69290 | 36237 ft | 456 kts | 54° |
| 2026-05-01 12:52 | 48.59601 | 1.80459 | 36221 ft | 455 kts | 54° |
| 2026-05-01 12:53 | 48.65545 | 1.91634 | 36221 ft | 455 kts | 55° |
| 2026-05-01 12:54 | 48.69500 | 1.99103 | 36230 ft | 454 kts | 55° |
| 2026-05-01 12:54 | 48.75041 | 2.10647 | 36231 ft | 448 kts | 68° |
| 2026-05-01 12:55 | 48.77844 | 2.23965 | 36218 ft | 442 kts | 78° |
| 2026-05-01 12:56 | 48.79472 | 2.32946 | 36216 ft | 442 kts | 78° |
| 2026-05-01 12:56 | 48.81091 | 2.41934 | 36226 ft | 442 kts | 78° |
| 2026-05-01 12:57 | 48.82687 | 2.50945 | 36226 ft | 442 kts | 78° |
| 2026-05-01 12:57 | 48.85062 | 2.64454 | 36216 ft | 442 kts | 78° |
| 2026-05-01 12:58 | 48.86650 | 2.73462 | 36226 ft | 442 kts | 78° |
| 2026-05-01 12:59 | 48.89021 | 2.87005 | 36236 ft | 442 kts | 78° |
| 2026-05-01 12:59 | 48.91357 | 3.00421 | 36243 ft | 442 kts | 79° |
| 2026-05-01 13:00 | 48.93704 | 3.14067 | 36228 ft | 442 kts | 79° |
| 2026-05-01 13:01 | 48.96020 | 3.27671 | 36236 ft | 443 kts | 79° |
| 2026-05-01 13:02 | 48.98331 | 3.41292 | 36242 ft | 443 kts | 79° |
| 2026-05-01 13:07 | 49.15404 | 4.41753 | 36251 ft | 449 kts | 70° |
| 2026-05-01 13:08 | 49.17786 | 4.50509 | 36251 ft | 449 kts | 70° |
| 2026-05-01 13:08 | 49.19787 | 4.57895 | 36251 ft | 449 kts | 70° |
| 2026-05-01 13:09 | 49.22559 | 4.68160 | 36258 ft | 449 kts | 70° |
| 2026-05-01 13:09 | 49.24934 | 4.77000 | 36261 ft | 449 kts | 70° |
| 2026-05-01 13:10 | 49.26917 | 4.84409 | 36267 ft | 449 kts | 70° |
| 2026-05-01 13:10 | 49.29273 | 4.93260 | 36263 ft | 449 kts | 70° |
| 2026-05-01 13:11 | 49.31607 | 5.02068 | 36269 ft | 449 kts | 70° |
| 2026-05-01 13:11 | 49.33970 | 5.10986 | 36272 ft | 449 kts | 70° |
| 2026-05-01 13:12 | 49.36296 | 5.19801 | 36278 ft | 449 kts | 70° |
| 2026-05-01 13:12 | 49.38630 | 5.28684 | 36278 ft | 449 kts | 70° |
| 2026-05-01 13:13 | 49.40960 | 5.37566 | 36272 ft | 449 kts | 70° |
| 2026-05-01 13:13 | 49.43280 | 5.46469 | 36271 ft | 449 kts | 70° |
| 2026-05-01 13:14 | 49.45597 | 5.55391 | 36272 ft | 450 kts | 70° |
| 2026-05-01 13:14 | 49.47904 | 5.64329 | 36274 ft | 450 kts | 70° |
| 2026-05-01 13:15 | 49.50208 | 5.73274 | 36282 ft | 450 kts | 70° |
| 2026-05-01 13:15 | 49.52490 | 5.82233 | 36290 ft | 450 kts | 71° |
| 2026-05-01 13:16 | 49.54679 | 5.91255 | 36287 ft | 450 kts | 71° |
| 2026-05-01 13:16 | 49.56885 | 6.00287 | 36086 ft | 453 kts | 70° |
| 2026-05-01 13:17 | 49.60241 | 6.13892 | 34458 ft | 453 kts | 70° |
| 2026-05-01 13:17 | 49.61356 | 6.18434 | 33882 ft | 454 kts | 71° |
| 2026-05-01 13:18 | 49.63625 | 6.27521 | 32700 ft | 454 kts | 66° |
| 2026-05-01 13:18 | 49.65027 | 6.31895 | 32131 ft | 454 kts | 67° |
| 2026-05-01 13:18 | 49.66065 | 6.36474 | 31572 ft | 452 kts | 73° |
| 2026-05-01 13:18 | 49.66997 | 6.41106 | 31027 ft | 450 kts | 73° |
| 2026-05-01 13:19 | 49.67908 | 6.45695 | 30474 ft | 445 kts | 73° |
| 2026-05-01 13:19 | 49.68807 | 6.50246 | 29876 ft | 439 kts | 73° |
| 2026-05-01 13:19 | 49.70562 | 6.59117 | 28637 ft | 430 kts | 73° |
| 2026-05-01 13:20 | 49.71447 | 6.63568 | 28037 ft | 426 kts | 73° |
| 2026-05-01 13:20 | 49.72313 | 6.67930 | 27458 ft | 423 kts | 73° |
| 2026-05-01 13:20 | 49.73178 | 6.72254 | 26891 ft | 419 kts | 73° |
| 2026-05-01 13:21 | 49.74882 | 6.80780 | 25789 ft | 412 kts | 73° |
| 2026-05-01 13:21 | 49.75698 | 6.84950 | 25261 ft | 409 kts | 73° |
| 2026-05-01 13:21 | 49.76529 | 6.89196 | 24750 ft | 405 kts | 73° |
| 2026-05-01 13:21 | 49.77457 | 6.93220 | 24241 ft | 402 kts | 69° |
| 2026-05-01 13:22 | 49.78501 | 6.97217 | 23711 ft | 399 kts | 68° |
| 2026-05-01 13:22 | 49.79549 | 7.01163 | 23109 ft | 395 kts | 68° |
| 2026-05-01 13:22 | 49.80599 | 7.05082 | 22517 ft | 393 kts | 67° |
| 2026-05-01 13:22 | 49.81817 | 7.08861 | 21954 ft | 391 kts | 64° |
| 2026-05-01 13:23 | 49.83096 | 7.12575 | 21375 ft | 389 kts | 63° |
| 2026-05-01 13:23 | 49.84386 | 7.16262 | 20827 ft | 388 kts | 63° |
| 2026-05-01 13:23 | 49.85668 | 7.19931 | 20281 ft | 387 kts | 63° |
| 2026-05-01 13:23 | 49.86952 | 7.23585 | 19746 ft | 385 kts | 64° |
| 2026-05-01 13:24 | 49.88238 | 7.27208 | 19217 ft | 383 kts | 63° |
| 2026-05-01 13:24 | 49.89515 | 7.30825 | 18700 ft | 381 kts | 63° |
| 2026-05-01 13:24 | 49.90794 | 7.34415 | 18127 ft | 380 kts | 63° |
| 2026-05-01 13:25 | 49.93336 | 7.41575 | 17001 ft | 377 kts | 64° |
| 2026-05-01 13:25 | 49.94596 | 7.45133 | 16443 ft | 375 kts | 64° |
| 2026-05-01 13:25 | 49.95848 | 7.48661 | 15883 ft | 374 kts | 64° |
| 2026-05-01 13:25 | 49.97105 | 7.52192 | 15329 ft | 372 kts | 63° |
| 2026-05-01 13:26 | 49.98349 | 7.55703 | 14798 ft | 370 kts | 64° |
| 2026-05-01 13:26 | 49.99481 | 7.59268 | 14291 ft | 366 kts | 68° |
| 2026-05-01 13:26 | 50.00508 | 7.62871 | 13719 ft | 364 kts | 68° |
| 2026-05-01 13:26 | 50.01530 | 7.66449 | 13150 ft | 361 kts | 68° |
| 2026-05-01 13:27 | 50.02544 | 7.70009 | 12584 ft | 359 kts | 69° |
| 2026-05-01 13:27 | 50.03551 | 7.73537 | 12022 ft | 356 kts | 69° |
| 2026-05-01 13:27 | 50.05553 | 7.80536 | 10936 ft | 352 kts | 69° |
| 2026-05-01 13:28 | 50.07385 | 7.87512 | 9860 ft | 344 kts | 81° |
| 2026-05-01 13:28 | 50.07421 | 7.91158 | 9404 ft | 332 kts | 104° |
| 2026-05-01 13:29 | 50.05004 | 7.96745 | 8631 ft | 310 kts | 149° |
| 2026-05-01 13:29 | 50.01041 | 7.98917 | 7881 ft | 291 kts | 163° |
| 2026-05-01 13:30 | 49.95416 | 8.04999 | 6402 ft | 246 kts | 105° |
| 2026-05-01 13:31 | 49.94783 | 8.09955 | 5796 ft | 221 kts | 104° |
| 2026-05-01 13:31 | 49.95682 | 8.16520 | 5032 ft | 197 kts | 74° |
| 2026-05-01 13:32 | 49.96566 | 8.20130 | 4524 ft | 164 kts | 75° |
| 2026-05-01 13:33 | 49.97749 | 8.25013 | 3839 ft | 157 kts | 73° |
| 2026-05-01 13:33 | 49.98506 | 8.28141 | 3408 ft | 151 kts | 71° |
| 2026-05-01 13:34 | 49.99203 | 8.31019 | 3007 ft | 140 kts | 73° |
| 2026-05-01 13:34 | 49.99874 | 8.33794 | 2613 ft | 136 kts | 74° |
| 2026-05-01 13:35 | 50.00536 | 8.36536 | 2229 ft | 138 kts | 71° |
| 2026-05-01 13:35 | 50.00871 | 8.37922 | 2032 ft | 136 kts | 73° |
| 2026-05-01 13:35 | 50.01528 | 8.40666 | 1631 ft | 133 kts | 72° |
| 2026-05-01 13:36 | 50.01857 | 8.42037 | 1454 ft | 136 kts | 73° |
| 2026-05-01 13:36 | 50.02183 | 8.43404 | 1263 ft | 133 kts | 74° |
| 2026-05-01 13:36 | 50.02834 | 8.46083 | 850 ft | 132 kts | 72° |
| 2026-05-01 13:37 | 50.03146 | 8.47376 | 685 ft | 126 kts | 75° |
| 2026-05-01 13:37 | 50.03443 | 8.48658 | 480 ft | 128 kts | 73° |
| 2026-05-01 13:37 | 50.03765 | 8.49934 | 322 ft | 125 kts | 73° |
| 2026-05-01 13:37 | 50.04003 | 8.50976 | 326 ft | 78 kts | 68° |
| 2026-05-01 13:38 | 50.04089 | 8.51830 | 335 ft | 29 kts | 100° |
| 2026-05-01 13:38 | 50.04064 | 8.52085 | 340 ft | 14 kts | 89° |
| 2026-05-01 13:38 | 50.04101 | 8.52262 | 348 ft | 21 kts | 69° |
| 2026-05-01 13:39 | 50.04150 | 8.52471 | 348 ft | 20 kts | 69° |
| 2026-05-01 13:39 | 50.04199 | 8.52675 | 356 ft | 21 kts | 70° |
| 2026-05-01 13:39 | 50.04259 | 8.52921 | 355 ft | 27 kts | 70° |
| 2026-05-01 13:39 | 50.04327 | 8.53209 | 365 ft | 28 kts | 69° |
| 2026-05-01 13:40 | 50.04390 | 8.53468 | 374 ft | 23 kts | 72° |
| 2026-05-01 13:40 | 50.04408 | 8.53709 | 375 ft | 23 kts | 84° |
| 2026-05-01 13:40 | 50.04424 | 8.53958 | 375 ft | 23 kts | 84° |
| 2026-05-01 13:40 | 50.04440 | 8.54206 | 375 ft | 24 kts | 84° |
| 2026-05-01 13:41 | 50.04452 | 8.54468 | 369 ft | 25 kts | 96° |
| 2026-05-01 13:41 | 50.04368 | 8.54713 | 365 ft | 28 kts | 136° |
| 2026-05-01 13:41 | 50.04183 | 8.54844 | 356 ft | 31 kts | 160° |
| 2026-05-01 13:41 | 50.04033 | 8.54933 | 355 ft | 15 kts | 152° |
| 2026-05-01 13:42 | 50.04032 | 8.55078 | 359 ft | 16 kts | 68° |
| 2026-05-01 13:42 | 50.04083 | 8.55287 | 358 ft | 25 kts | 69° |
| 2026-05-01 13:42 | 50.04153 | 8.55583 | 352 ft | 31 kts | 70° |
| 2026-05-01 13:42 | 50.04227 | 8.55891 | 360 ft | 30 kts | 69° |
| 2026-05-01 13:43 | 50.04296 | 8.56186 | 358 ft | 28 kts | 69° |
| 2026-05-01 13:43 | 50.04365 | 8.56470 | 361 ft | 28 kts | 70° |
| 2026-05-01 13:43 | 50.04431 | 8.56745 | 362 ft | 26 kts | 70° |
| 2026-05-01 13:43 | 50.04494 | 8.57011 | 361 ft | 27 kts | 70° |
| 2026-05-01 13:44 | 50.04559 | 8.57281 | 361 ft | 27 kts | 70° |
| 2026-05-01 13:44 | 50.04624 | 8.57551 | 359 ft | 26 kts | 69° |
| 2026-05-01 13:44 | 50.04688 | 8.57819 | 363 ft | 26 kts | 69° |
| 2026-05-01 13:44 | 50.04677 | 8.57979 | 360 ft | 16 kts | 162° |
| 2026-05-01 13:45 | 50.04577 | 8.58040 | 367 ft | 14 kts | 154° |
| 2026-05-01 13:45 | 50.04578 | 8.58169 | 366 ft | 13 kts | 68° |
| 2026-05-01 13:45 | 50.04619 | 8.58343 | 371 ft | 22 kts | 70° |
| 2026-05-01 13:45 | 50.04681 | 8.58603 | 372 ft | 27 kts | 70° |
| 2026-05-01 13:46 | 50.04751 | 8.58871 | 370 ft | 27 kts | 70° |
| 2026-05-01 13:46 | 50.04812 | 8.59126 | 369 ft | 15 kts | 70° |
| 2026-05-01 13:46 | 50.04860 | 8.59135 | 370 ft | 9 kts | 332° |
| 2026-05-01 13:46 | 50.04900 | 8.59111 | 371 ft | 0 kts | 340° |
| 2026-05-01 13:47 | 50.04902 | 8.59109 | 371 ft | 0 kts | 339° |